Dalton, Massachusetts
Current Conditions -  °F | °C
As of 7:02 AM on Thursday 23 Oct 2014 (Local Time) from KPSF Reporting Station
Light Rain Light Rain  
Wind Chill: 42°   Ceiling: 3700
Heat Index: 46°   Visibility: 7mi
Dew Point: 44°   Wind: 7mph
Humidity: 93%   Direction: 360°N
Pressure: 29.76"   Gusts: NA
Location:  42.47°N, 73.17°W
Report Text: KPSF 231102Z AUTO 36006KT 7SM -RA FEW019 SCT029 OVC037 08/07 A2976 RMK AO2 P0002 T00780067
Loading
Personal Weather Stations






























Interactive Weather Map New forecast layout! Learn more

10-Day Weather Forecast

Advertisements
Track Severe Weather on mobile